sensor_id;sensor_type;location;lat;lon;timestamp;P1;durP1;ratioP1;P2;durP2;ratioP2
10535;SDS011;5316;49.538;8.352;2023-04-01T00:01:59;5.00;;;0.60;;
10535;SDS011;5316;49.538;8.352;2023-04-01T00:04:29;3.87;;;0.80;;
10535;SDS011;5316;49.538;8.352;2023-04-01T00:06:57;2.80;;;0.70;;
10535;SDS011;5316;49.538;8.352;2023-04-01T00:09:25;3.43;;;0.60;;
10535;SDS011;5316;49.538;8.352;2023-04-01T00:11:52;3.90;;;1.00;;
10535;SDS011;5316;49.538;8.352;2023-04-01T00:14:19;3.83;;;0.70;;
10535;SDS011;5316;49.538;8.352;2023-04-01T00:16:46;3.20;;;0.80;;
10535;SDS011;5316;49.538;8.352;2023-04-01T00:19:13;4.47;;;0.70;;
10535;SDS011;5316;49.538;8.352;2023-04-01T00:21:43;2.20;;;0.50;;
10535;SDS011;5316;49.538;8.352;2023-04-01T00:24:11;2.90;;;0.87;;
10535;SDS011;5316;49.538;8.352;2023-04-01T00:26:38;3.50;;;0.70;;
10535;SDS011;5316;49.538;8.352;2023-04-01T00:29:07;4.93;;;0.77;;
10535;SDS011;5316;49.538;8.352;2023-04-01T00:31:34;6.43;;;0.80;;
10535;SDS011;5316;49.538;8.352;2023-04-01T00:34:02;6.23;;;0.90;;
10535;SDS011;5316;49.538;8.352;2023-04-01T00:36:33;3.07;;;0.70;;
10535;SDS011;5316;49.538;8.352;2023-04-01T00:39:03;2.37;;;0.87;;
10535;SDS011;5316;49.538;8.352;2023-04-01T00:41:33;1.93;;;0.80;;
10535;SDS011;5316;49.538;8.352;2023-04-01T00:44:14;1.43;;;0.60;;
10535;SDS011;5316;49.538;8.352;2023-04-01T00:46:44;2.50;;;0.90;;
10535;SDS011;5316;49.538;8.352;2023-04-01T00:49:11;1.77;;;0.60;;
10535;SDS011;5316;49.538;8.352;2023-04-01T00:51:39;3.63;;;0.70;;
10535;SDS011;5316;49.538;8.352;2023-04-01T00:54:08;2.70;;;0.60;;
10535;SDS011;5316;49.538;8.352;2023-04-01T00:56:37;3.57;;;0.67;;
10535;SDS011;5316;49.538;8.352;2023-04-01T00:59:08;2.67;;;0.70;;
10535;SDS011;5316;49.538;8.352;2023-04-01T01:01:38;2.10;;;0.70;;
10535;SDS011;5316;49.538;8.352;2023-04-01T01:04:06;3.33;;;0.90;;
10535;SDS011;5316;49.538;8.352;2023-04-01T01:06:39;2.17;;;0.63;;
10535;SDS011;5316;49.538;8.352;2023-04-01T01:09:18;2.17;;;0.63;;
10535;SDS011;5316;49.538;8.352;2023-04-01T01:11:58;4.77;;;0.80;;
10535;SDS011;5316;49.538;8.352;2023-04-01T01:14:35;2.83;;;0.60;;
10535;SDS011;5316;49.538;8.352;2023-04-01T01:17:12;2.43;;;0.90;;
10535;SDS011;5316;49.538;8.352;2023-04-01T01:26:25;4.90;;;0.83;;
10535;SDS011;5316;49.538;8.352;2023-04-01T01:29:16;1.87;;;0.80;;
10535;SDS011;5316;49.538;8.352;2023-04-01T01:31:55;2.53;;;0.80;;
10535;SDS011;5316;49.538;8.352;2023-04-01T01:34:31;3.17;;;0.70;;
10535;SDS011;5316;49.538;8.352;2023-04-01T01:37:06;1.27;;;0.67;;
10535;SDS011;5316;49.538;8.352;2023-04-01T01:39:39;2.63;;;0.70;;
10535;SDS011;5316;49.538;8.352;2023-04-01T01:42:11;2.43;;;0.70;;
10535;SDS011;5316;49.538;8.352;2023-04-01T01:44:40;3.97;;;0.77;;
10535;SDS011;5316;49.538;8.352;2023-04-01T01:47:16;3.00;;;0.63;;
10535;SDS011;5316;49.538;8.352;2023-04-01T01:49:45;3.03;;;0.70;;
10535;SDS011;5316;49.538;8.352;2023-04-01T01:52:14;3.13;;;0.77;;
10535;SDS011;5316;49.538;8.352;2023-04-01T01:54:47;3.17;;;0.97;;
10535;SDS011;5316;49.538;8.352;2023-04-01T01:57:38;2.83;;;0.70;;
10535;SDS011;5316;49.538;8.352;2023-04-01T02:00:17;2.30;;;0.60;;
10535;SDS011;5316;49.538;8.352;2023-04-01T02:03:01;3.37;;;0.60;;
10535;SDS011;5316;49.538;8.352;2023-04-01T02:37:42;5.07;;;0.93;;
10535;SDS011;5316;49.538;8.352;2023-04-01T02:40:26;3.30;;;0.60;;
10535;SDS011;5316;49.538;8.352;2023-04-01T02:42:58;2.83;;;0.70;;
10535;SDS011;5316;49.538;8.352;2023-04-01T02:45:35;3.90;;;0.57;;
10535;SDS011;5316;49.538;8.352;2023-04-01T02:48:37;3.00;;;0.70;;
10535;SDS011;5316;49.538;8.352;2023-04-01T02:51:34;2.43;;;0.53;;
10535;SDS011;5316;49.538;8.352;2023-04-01T02:54:27;2.97;;;0.50;;
10535;SDS011;5316;49.538;8.352;2023-04-01T03:00:54;2.47;;;0.60;;
10535;SDS011;5316;49.538;8.352;2023-04-01T03:03:51;2.03;;;0.60;;
10535;SDS011;5316;49.538;8.352;2023-04-01T03:06:36;1.47;;;0.50;;
10535;SDS011;5316;49.538;8.352;2023-04-01T03:09:43;2.00;;;0.60;;
10535;SDS011;5316;49.538;8.352;2023-04-01T03:12:36;2.33;;;0.70;;
10535;SDS011;5316;49.538;8.352;2023-04-01T03:15:19;1.60;;;0.60;;
10535;SDS011;5316;49.538;8.352;2023-04-01T03:18:08;1.53;;;0.60;;
10535;SDS011;5316;49.538;8.352;2023-04-01T03:27:06;2.67;;;0.57;;
10535;SDS011;5316;49.538;8.352;2023-04-01T03:29:59;2.00;;;0.50;;
10535;SDS011;5316;49.538;8.352;2023-04-01T03:36:02;3.90;;;0.70;;
10535;SDS011;5316;49.538;8.352;2023-04-01T03:38:43;1.70;;;0.70;;
10535;SDS011;5316;49.538;8.352;2023-04-01T03:41:19;1.93;;;0.60;;
10535;SDS011;5316;49.538;8.352;2023-04-01T03:47:15;3.20;;;0.50;;
10535;SDS011;5316;49.538;8.352;2023-04-01T03:49:58;2.73;;;0.60;;
10535;SDS011;5316;49.538;8.352;2023-04-01T03:52:35;1.33;;;0.43;;
10535;SDS011;5316;49.538;8.352;2023-04-01T04:05:16;1.70;;;0.60;;
10535;SDS011;5316;49.538;8.352;2023-04-01T04:08:03;1.57;;;0.50;;
10535;SDS011;5316;49.538;8.352;2023-04-01T05:03:19;1.30;;;0.60;;
10535;SDS011;5316;49.538;8.352;2023-04-01T05:19:57;2.53;;;0.50;;
10535;SDS011;5316;49.538;8.352;2023-04-01T05:33:43;0.57;;;0.30;;
10535;SDS011;5316;49.538;8.352;2023-04-01T05:37:15;1.70;;;0.50;;
10535;SDS011;5316;49.538;8.352;2023-04-01T05:39:51;1.27;;;0.33;;
10535;SDS011;5316;49.538;8.352;2023-04-01T06:14:19;2.13;;;0.50;;
10535;SDS011;5316;49.538;8.352;2023-04-01T06:27:51;1.50;;;0.40;;
10535;SDS011;5316;49.538;8.352;2023-04-01T06:30:49;0.93;;;0.40;;
10535;SDS011;5316;49.538;8.352;2023-04-01T06:44:09;0.77;;;0.40;;
10535;SDS011;5316;49.538;8.352;2023-04-01T06:46:47;1.50;;;0.40;;
10535;SDS011;5316;49.538;8.352;2023-04-01T07:33:09;0.70;;;0.30;;
10535;SDS011;5316;49.538;8.352;2023-04-01T07:36:32;0.60;;;0.40;;
10535;SDS011;5316;49.538;8.352;2023-04-01T09:35:50;0.43;;;0.20;;
10535;SDS011;5316;49.538;8.352;2023-04-01T09:38:37;2.80;;;0.30;;
10535;SDS011;5316;49.538;8.352;2023-04-01T09:41:24;0.70;;;0.30;;
10535;SDS011;5316;49.538;8.352;2023-04-01T09:44:02;0.30;;;0.30;;
10535;SDS011;5316;49.538;8.352;2023-04-01T09:46:37;0.87;;;0.30;;
10535;SDS011;5316;49.538;8.352;2023-04-01T09:49:36;0.23;;;0.23;;
10535;SDS011;5316;49.538;8.352;2023-04-01T09:56:01;0.37;;;0.37;;
10535;SDS011;5316;49.538;8.352;2023-04-01T10:11:32;0.23;;;0.23;;
10535;SDS011;5316;49.538;8.352;2023-04-01T10:14:29;0.20;;;0.20;;
10535;SDS011;5316;49.538;8.352;2023-04-01T10:26:55;0.67;;;0.30;;
10535;SDS011;5316;49.538;8.352;2023-04-01T10:30:09;0.20;;;0.20;;
10535;SDS011;5316;49.538;8.352;2023-04-01T10:36:14;0.20;;;0.20;;
10535;SDS011;5316;49.538;8.352;2023-04-01T10:45:42;0.20;;;0.20;;
10535;SDS011;5316;49.538;8.352;2023-04-01T10:48:44;0.20;;;0.20;;
10535;SDS011;5316;49.538;8.352;2023-04-01T10:51:38;0.20;;;0.20;;
10535;SDS011;5316;49.538;8.352;2023-04-01T10:54:40;0.83;;;0.20;;
10535;SDS011;5316;49.538;8.352;2023-04-01T10:57:18;0.27;;;0.27;;
10535;SDS011;5316;49.538;8.352;2023-04-01T11:09:33;0.27;;;0.27;;
10535;SDS011;5316;49.538;8.352;2023-04-01T11:12:35;0.77;;;0.20;;
10535;SDS011;5316;49.538;8.352;2023-04-01T11:21:52;0.27;;;0.20;;
10535;SDS011;5316;49.538;8.352;2023-04-01T11:27:33;0.20;;;0.20;;
10535;SDS011;5316;49.538;8.352;2023-04-01T11:30:22;0.30;;;0.20;;
10535;SDS011;5316;49.538;8.352;2023-04-01T11:32:57;0.50;;;0.30;;
10535;SDS011;5316;49.538;8.352;2023-04-01T11:38:35;0.47;;;0.30;;
10535;SDS011;5316;49.538;8.352;2023-04-01T11:41:20;0.20;;;0.20;;
10535;SDS011;5316;49.538;8.352;2023-04-01T11:43:59;1.33;;;0.60;;
10535;SDS011;5316;49.538;8.352;2023-04-01T11:46:38;0.20;;;0.20;;
10535;SDS011;5316;49.538;8.352;2023-04-01T11:49:16;0.37;;;0.20;;
10535;SDS011;5316;49.538;8.352;2023-04-01T12:03:33;0.90;;;0.37;;
10535;SDS011;5316;49.538;8.352;2023-04-01T12:06:16;0.40;;;0.37;;
10535;SDS011;5316;49.538;8.352;2023-04-01T12:08:54;0.27;;;0.27;;
10535;SDS011;5316;49.538;8.352;2023-04-01T12:11:28;0.40;;;0.30;;
10535;SDS011;5316;49.538;8.352;2023-04-01T12:14:03;0.20;;;0.20;;
10535;SDS011;5316;49.538;8.352;2023-04-01T12:16:43;0.20;;;0.20;;
10535;SDS011;5316;49.538;8.352;2023-04-01T12:19:27;0.77;;;0.30;;
10535;SDS011;5316;49.538;8.352;2023-04-01T12:22:08;0.20;;;0.20;;
10535;SDS011;5316;49.538;8.352;2023-04-01T12:24:45;0.80;;;0.30;;
10535;SDS011;5316;49.538;8.352;2023-04-01T12:27:25;0.30;;;0.20;;
10535;SDS011;5316;49.538;8.352;2023-04-01T12:33:16;0.27;;;0.27;;
10535;SDS011;5316;49.538;8.352;2023-04-01T12:36:00;0.10;;;0.10;;
10535;SDS011;5316;49.538;8.352;2023-04-01T12:38:36;0.20;;;0.20;;
10535;SDS011;5316;49.538;8.352;2023-04-01T12:41:14;0.43;;;0.10;;
10535;SDS011;5316;49.538;8.352;2023-04-01T12:46:52;0.30;;;0.30;;
10535;SDS011;5316;49.538;8.352;2023-04-01T12:52:54;0.27;;;0.27;;
10535;SDS011;5316;49.538;8.352;2023-04-01T12:55:36;0.30;;;0.30;;
10535;SDS011;5316;49.538;8.352;2023-04-01T12:58:24;0.33;;;0.30;;
10535;SDS011;5316;49.538;8.352;2023-04-01T13:01:19;0.23;;;0.23;;
10535;SDS011;5316;49.538;8.352;2023-04-01T13:03:59;1.20;;;0.13;;
10535;SDS011;5316;49.538;8.352;2023-04-01T13:06:55;0.20;;;0.20;;
10535;SDS011;5316;49.538;8.352;2023-04-01T13:09:39;0.80;;;0.20;;
10535;SDS011;5316;49.538;8.352;2023-04-01T13:12:20;0.20;;;0.20;;
10535;SDS011;5316;49.538;8.352;2023-04-01T13:15:20;0.40;;;0.20;;
10535;SDS011;5316;49.538;8.352;2023-04-01T13:17:55;0.50;;;0.50;;
10535;SDS011;5316;49.538;8.352;2023-04-01T13:20:34;0.43;;;0.40;;
10535;SDS011;5316;49.538;8.352;2023-04-01T13:23:11;0.30;;;0.30;;
10535;SDS011;5316;49.538;8.352;2023-04-01T13:25:51;0.40;;;0.30;;
10535;SDS011;5316;49.538;8.352;2023-04-01T13:28:25;0.53;;;0.43;;
10535;SDS011;5316;49.538;8.352;2023-04-01T13:30:57;0.40;;;0.30;;
10535;SDS011;5316;49.538;8.352;2023-04-01T13:33:32;0.30;;;0.30;;
10535;SDS011;5316;49.538;8.352;2023-04-01T13:36:18;0.30;;;0.20;;
10535;SDS011;5316;49.538;8.352;2023-04-01T13:41:48;0.97;;;0.30;;
10535;SDS011;5316;49.538;8.352;2023-04-01T13:44:32;0.20;;;0.20;;
10535;SDS011;5316;49.538;8.352;2023-04-01T13:50:12;0.37;;;0.30;;
10535;SDS011;5316;49.538;8.352;2023-04-01T13:58:58;0.50;;;0.40;;
10535;SDS011;5316;49.538;8.352;2023-04-01T14:01:35;1.27;;;0.20;;
10535;SDS011;5316;49.538;8.352;2023-04-01T14:04:15;0.37;;;0.30;;
10535;SDS011;5316;49.538;8.352;2023-04-01T14:07:03;0.40;;;0.30;;
10535;SDS011;5316;49.538;8.352;2023-04-01T14:09:43;0.33;;;0.30;;
10535;SDS011;5316;49.538;8.352;2023-04-01T14:12:19;0.30;;;0.30;;
10535;SDS011;5316;49.538;8.352;2023-04-01T14:15:01;0.30;;;0.30;;
10535;SDS011;5316;49.538;8.352;2023-04-01T14:17:48;0.27;;;0.27;;
10535;SDS011;5316;49.538;8.352;2023-04-01T14:20:36;0.60;;;0.40;;
10535;SDS011;5316;49.538;8.352;2023-04-01T14:23:30;0.53;;;0.40;;
10535;SDS011;5316;49.538;8.352;2023-04-01T14:26:08;0.87;;;0.40;;
10535;SDS011;5316;49.538;8.352;2023-04-01T14:28:47;0.47;;;0.40;;
10535;SDS011;5316;49.538;8.352;2023-04-01T14:31:32;0.37;;;0.37;;
10535;SDS011;5316;49.538;8.352;2023-04-01T14:34:09;0.87;;;0.40;;
10535;SDS011;5316;49.538;8.352;2023-04-01T14:36:50;0.80;;;0.40;;
10535;SDS011;5316;49.538;8.352;2023-04-01T14:39:36;0.50;;;0.30;;
10535;SDS011;5316;49.538;8.352;2023-04-01T14:42:18;0.50;;;0.50;;
10535;SDS011;5316;49.538;8.352;2023-04-01T14:45:02;1.63;;;0.40;;
10535;SDS011;5316;49.538;8.352;2023-04-01T14:47:53;1.03;;;0.40;;
10535;SDS011;5316;49.538;8.352;2023-04-01T14:50:25;1.40;;;0.90;;
10535;SDS011;5316;49.538;8.352;2023-04-01T14:52:58;0.67;;;0.50;;
10535;SDS011;5316;49.538;8.352;2023-04-01T14:55:44;1.07;;;0.57;;
10535;SDS011;5316;49.538;8.352;2023-04-01T14:58:16;0.50;;;0.27;;
10535;SDS011;5316;49.538;8.352;2023-04-01T15:00:52;0.57;;;0.23;;
10535;SDS011;5316;49.538;8.352;2023-04-01T15:03:26;0.30;;;0.30;;
10535;SDS011;5316;49.538;8.352;2023-04-01T15:06:10;0.50;;;0.50;;
10535;SDS011;5316;49.538;8.352;2023-04-01T15:08:51;0.37;;;0.37;;
10535;SDS011;5316;49.538;8.352;2023-04-01T15:11:31;0.60;;;0.30;;
10535;SDS011;5316;49.538;8.352;2023-04-01T15:14:13;0.63;;;0.43;;
10535;SDS011;5316;49.538;8.352;2023-04-01T15:16:52;0.40;;;0.40;;
10535;SDS011;5316;49.538;8.352;2023-04-01T15:19:29;0.27;;;0.27;;
10535;SDS011;5316;49.538;8.352;2023-04-01T15:22:15;0.57;;;0.40;;
10535;SDS011;5316;49.538;8.352;2023-04-01T15:25:05;0.50;;;0.40;;
10535;SDS011;5316;49.538;8.352;2023-04-01T15:27:48;0.53;;;0.30;;
10535;SDS011;5316;49.538;8.352;2023-04-01T15:30:27;0.83;;;0.30;;
10535;SDS011;5316;49.538;8.352;2023-04-01T15:33:10;0.27;;;0.20;;
10535;SDS011;5316;49.538;8.352;2023-04-01T15:35:48;0.30;;;0.30;;
10535;SDS011;5316;49.538;8.352;2023-04-01T15:38:27;0.37;;;0.30;;
10535;SDS011;5316;49.538;8.352;2023-04-01T15:41:02;0.50;;;0.40;;
10535;SDS011;5316;49.538;8.352;2023-04-01T15:43:41;0.40;;;0.30;;
10535;SDS011;5316;49.538;8.352;2023-04-01T15:46:19;0.73;;;0.43;;
10535;SDS011;5316;49.538;8.352;2023-04-01T15:49:10;0.30;;;0.30;;
10535;SDS011;5316;49.538;8.352;2023-04-01T15:51:56;0.80;;;0.33;;
10535;SDS011;5316;49.538;8.352;2023-04-01T15:54:41;0.40;;;0.40;;
10535;SDS011;5316;49.538;8.352;2023-04-01T15:57:36;0.83;;;0.50;;
10535;SDS011;5316;49.538;8.352;2023-04-01T16:00:15;0.70;;;0.60;;
10535;SDS011;5316;49.538;8.352;2023-04-01T16:02:48;0.70;;;0.47;;
10535;SDS011;5316;49.538;8.352;2023-04-01T16:05:29;0.70;;;0.30;;
10535;SDS011;5316;49.538;8.352;2023-04-01T16:08:06;0.30;;;0.30;;
10535;SDS011;5316;49.538;8.352;2023-04-01T16:10:48;0.30;;;0.30;;
10535;SDS011;5316;49.538;8.352;2023-04-01T16:13:28;0.83;;;0.20;;
10535;SDS011;5316;49.538;8.352;2023-04-01T16:16:07;0.30;;;0.30;;
10535;SDS011;5316;49.538;8.352;2023-04-01T16:18:47;0.40;;;0.30;;
10535;SDS011;5316;49.538;8.352;2023-04-01T16:21:35;0.20;;;0.20;;
10535;SDS011;5316;49.538;8.352;2023-04-01T16:24:15;0.20;;;0.20;;
10535;SDS011;5316;49.538;8.352;2023-04-01T16:26:57;2.10;;;0.97;;
10535;SDS011;5316;49.538;8.352;2023-04-01T16:29:32;0.93;;;0.30;;
10535;SDS011;5316;49.538;8.352;2023-04-01T16:35:15;0.70;;;0.23;;
10535;SDS011;5316;49.538;8.352;2023-04-01T16:37:50;0.97;;;0.30;;
10535;SDS011;5316;49.538;8.352;2023-04-01T16:40:23;0.40;;;0.30;;
10535;SDS011;5316;49.538;8.352;2023-04-01T16:43:04;0.83;;;0.67;;
10535;SDS011;5316;49.538;8.352;2023-04-01T16:45:37;1.67;;;0.80;;
10535;SDS011;5316;49.538;8.352;2023-04-01T16:48:11;0.30;;;0.30;;
10535;SDS011;5316;49.538;8.352;2023-04-01T16:50:47;0.77;;;0.50;;
10535;SDS011;5316;49.538;8.352;2023-04-01T16:53:19;0.70;;;0.50;;
10535;SDS011;5316;49.538;8.352;2023-04-01T16:55:58;0.20;;;0.20;;
10535;SDS011;5316;49.538;8.352;2023-04-01T16:58:34;0.60;;;0.40;;
10535;SDS011;5316;49.538;8.352;2023-04-01T17:01:04;0.20;;;0.20;;
10535;SDS011;5316;49.538;8.352;2023-04-01T17:03:36;0.30;;;0.30;;
10535;SDS011;5316;49.538;8.352;2023-04-01T17:06:12;0.50;;;0.30;;
10535;SDS011;5316;49.538;8.352;2023-04-01T17:08:57;0.53;;;0.40;;
10535;SDS011;5316;49.538;8.352;2023-04-01T17:11:35;0.50;;;0.40;;
10535;SDS011;5316;49.538;8.352;2023-04-01T17:14:10;0.30;;;0.30;;
10535;SDS011;5316;49.538;8.352;2023-04-01T17:16:54;0.50;;;0.50;;
10535;SDS011;5316;49.538;8.352;2023-04-01T17:19:34;0.70;;;0.43;;
10535;SDS011;5316;49.538;8.352;2023-04-01T17:22:12;0.60;;;0.40;;
10535;SDS011;5316;49.538;8.352;2023-04-01T17:24:51;1.40;;;0.87;;
10535;SDS011;5316;49.538;8.352;2023-04-01T17:27:33;0.70;;;0.50;;
10535;SDS011;5316;49.538;8.352;2023-04-01T17:36:03;0.20;;;0.20;;
10535;SDS011;5316;49.538;8.352;2023-04-01T17:38:40;0.50;;;0.30;;
10535;SDS011;5316;49.538;8.352;2023-04-01T17:41:24;0.30;;;0.30;;
10535;SDS011;5316;49.538;8.352;2023-04-01T17:43:58;0.20;;;0.20;;
10535;SDS011;5316;49.538;8.352;2023-04-01T17:46:41;1.30;;;0.30;;
10535;SDS011;5316;49.538;8.352;2023-04-01T17:49:23;0.83;;;0.40;;
10535;SDS011;5316;49.538;8.352;2023-04-01T17:52:00;0.63;;;0.30;;
10535;SDS011;5316;49.538;8.352;2023-04-01T17:54:34;0.40;;;0.40;;
10535;SDS011;5316;49.538;8.352;2023-04-01T17:57:09;0.40;;;0.40;;
10535;SDS011;5316;49.538;8.352;2023-04-01T17:59:51;0.60;;;0.40;;
10535;SDS011;5316;49.538;8.352;2023-04-01T18:02:24;0.43;;;0.40;;
10535;SDS011;5316;49.538;8.352;2023-04-01T18:05:05;0.30;;;0.30;;
10535;SDS011;5316;49.538;8.352;2023-04-01T18:08:04;0.50;;;0.30;;
10535;SDS011;5316;49.538;8.352;2023-04-01T18:10:41;0.40;;;0.30;;
10535;SDS011;5316;49.538;8.352;2023-04-01T18:13:37;0.73;;;0.40;;
10535;SDS011;5316;49.538;8.352;2023-04-01T18:16:41;1.93;;;0.40;;
10535;SDS011;5316;49.538;8.352;2023-04-01T18:22:45;1.07;;;0.40;;
10535;SDS011;5316;49.538;8.352;2023-04-01T19:26:09;0.60;;;0.30;;
10535;SDS011;5316;49.538;8.352;2023-04-01T19:43:50;0.50;;;0.50;;
10535;SDS011;5316;49.538;8.352;2023-04-01T19:50:30;0.40;;;0.40;;
10535;SDS011;5316;49.538;8.352;2023-04-01T20:04:16;2.37;;;1.40;;
10535;SDS011;5316;49.538;8.352;2023-04-01T20:07:06;0.50;;;0.40;;
10535;SDS011;5316;49.538;8.352;2023-04-01T20:10:16;0.40;;;0.40;;
10535;SDS011;5316;49.538;8.352;2023-04-01T20:13:18;0.70;;;0.50;;
10535;SDS011;5316;49.538;8.352;2023-04-01T20:16:55;0.90;;;0.63;;
10535;SDS011;5316;49.538;8.352;2023-04-01T20:41:06;0.60;;;0.60;;
10535;SDS011;5316;49.538;8.352;2023-04-01T20:44:34;0.50;;;0.50;;
10535;SDS011;5316;49.538;8.352;2023-04-01T21:26:28;1.03;;;1.00;;
10535;SDS011;5316;49.538;8.352;2023-04-01T21:30:03;1.30;;;0.80;;
10535;SDS011;5316;49.538;8.352;2023-04-01T21:37:26;1.00;;;1.00;;
10535;SDS011;5316;49.538;8.352;2023-04-01T21:46:29;0.90;;;0.90;;
10535;SDS011;5316;49.538;8.352;2023-04-01T21:51:52;1.90;;;0.83;;
10535;SDS011;5316;49.538;8.352;2023-04-01T22:29:55;1.13;;;0.97;;
10535;SDS011;5316;49.538;8.352;2023-04-01T22:33:14;0.73;;;0.73;;
10535;SDS011;5316;49.538;8.352;2023-04-01T22:36:22;1.37;;;1.00;;
10535;SDS011;5316;49.538;8.352;2023-04-01T23:17:47;0.80;;;0.80;;
10535;SDS011;5316;49.538;8.352;2023-04-01T23:24:13;1.90;;;0.80;;
10535;SDS011;5316;49.538;8.352;2023-04-01T23:27:25;1.93;;;0.80;;
10535;SDS011;5316;49.538;8.352;2023-04-01T23:33:50;0.90;;;0.90;;
10535;SDS011;5316;49.538;8.352;2023-04-01T23:36:54;1.53;;;1.43;;
10535;SDS011;5316;49.538;8.352;2023-04-01T23:41:16;3.23;;;0.90;;
10535;SDS011;5316;49.538;8.352;2023-04-01T23:47:06;0.80;;;0.80;;
